createdAt,value
2023-03-15T00:00:17.466Z,53.00
2023-03-15T00:01:23.224Z,53.10
2023-03-15T00:02:26.451Z,53.10
2023-03-15T00:03:28.861Z,53.10
2023-03-15T00:04:33.430Z,53.20
2023-03-15T00:05:35.828Z,53.10
2023-03-15T00:06:39.072Z,53.20
2023-03-15T00:07:41.378Z,53.20
2023-03-15T00:08:47.318Z,53.20
2023-03-15T00:09:49.452Z,53.20
2023-03-15T00:10:52.666Z,53.30
2023-03-15T00:11:54.818Z,53.50
2023-03-15T00:12:57.908Z,53.60
2023-03-15T00:14:02.626Z,53.80
2023-03-15T00:15:06.833Z,54.00
2023-03-15T00:16:08.979Z,54.10
2023-03-15T00:17:12.922Z,54.10
2023-03-15T00:18:16.017Z,54.20
2023-03-15T00:19:19.217Z,54.30
2023-03-15T00:20:21.314Z,54.40
2023-03-15T00:21:25.275Z,54.40
2023-03-15T00:22:27.474Z,54.40
2023-03-15T00:23:31.533Z,54.40
2023-03-15T00:24:33.718Z,54.40
2023-03-15T00:25:37.381Z,54.50
2023-03-15T00:26:39.682Z,54.60
2023-03-15T00:27:42.936Z,54.60
2023-03-15T00:28:45.467Z,54.60
2023-03-15T00:29:50.217Z,54.70
2023-03-15T00:31:04.228Z,54.80
2023-03-15T00:32:07.540Z,54.80
2023-03-15T00:33:13.785Z,54.80
2023-03-15T00:34:18.841Z,54.90
2023-03-15T00:35:21.916Z,54.90
2023-03-15T00:36:26.062Z,55.00
2023-03-15T00:37:28.294Z,55.00
2023-03-15T00:38:31.984Z,55.10
2023-03-15T00:39:37.846Z,55.00
2023-03-15T00:40:41.108Z,54.90
2023-03-15T00:41:45.688Z,54.90
2023-03-15T00:42:50.409Z,54.80
2023-03-15T00:43:52.994Z,54.90
2023-03-15T00:44:57.484Z,54.80
2023-03-15T00:46:00.305Z,54.80
2023-03-15T00:47:03.438Z,54.80
2023-03-15T00:48:06.268Z,54.90
2023-03-15T00:49:09.478Z,55.00
2023-03-15T00:50:12.180Z,55.00
2023-03-15T00:51:17.516Z,55.20
2023-03-15T00:52:19.750Z,55.20
2023-03-15T00:53:22.848Z,55.20
2023-03-15T00:54:25.014Z,55.20
2023-03-15T00:55:28.551Z,55.40
2023-03-15T00:56:31.217Z,55.60
2023-03-15T00:57:35.266Z,55.60
2023-03-15T00:58:37.572Z,55.60
2023-03-15T00:59:40.708Z,55.60
2023-03-15T01:00:44.228Z,55.60
2023-03-15T01:01:47.373Z,55.60
2023-03-15T01:02:49.579Z,55.60
2023-03-15T01:03:52.954Z,55.60
2023-03-15T01:04:55.071Z,55.60
2023-03-15T01:05:58.253Z,55.70
2023-03-15T01:07:00.594Z,55.80
2023-03-15T01:08:04.120Z,55.80
2023-03-15T01:09:06.236Z,55.70
2023-03-15T01:10:10.053Z,55.80
2023-03-15T01:11:15.004Z,55.90
2023-03-15T01:12:18.367Z,55.90
2023-03-15T01:13:20.531Z,56.00
2023-03-15T01:14:23.663Z,56.40
2023-03-15T01:15:26.056Z,56.20
2023-03-15T01:16:31.429Z,56.20
2023-03-15T01:17:33.715Z,56.20
2023-03-15T01:18:37.770Z,56.30
2023-03-15T01:19:39.942Z,56.40
2023-03-15T01:20:45.818Z,56.30
2023-03-15T01:21:48.016Z,56.20
2023-03-15T01:22:51.166Z,56.20
2023-03-15T01:23:54.245Z,56.30
2023-03-15T01:24:57.560Z,56.20
2023-03-15T01:26:00.827Z,56.30
2023-03-15T01:27:03.990Z,56.20
2023-03-15T01:28:06.148Z,56.20
2023-03-15T01:29:09.415Z,56.10
2023-03-15T01:30:12.253Z,56.10
2023-03-15T01:31:19.905Z,56.20
2023-03-15T01:32:24.221Z,56.10
2023-03-15T01:33:27.632Z,56.10
2023-03-15T01:34:29.737Z,56.10
2023-03-15T01:35:32.882Z,56.10
2023-03-15T01:36:34.992Z,56.40
2023-03-15T01:37:38.139Z,56.10
2023-03-15T01:38:40.807Z,56.00
2023-03-15T01:39:44.309Z,55.90
2023-03-15T01:40:46.533Z,55.80
2023-03-15T01:41:50.003Z,55.80
2023-03-15T01:42:54.128Z,55.80
2023-03-15T01:43:57.290Z,55.80
2023-03-15T01:45:00.359Z,55.70
2023-03-15T01:46:18.930Z,55.80
2023-03-15T01:47:26.006Z,55.80
2023-03-15T01:48:35.727Z,55.80
2023-03-15T01:49:38.967Z,55.90
2023-03-15T01:50:41.218Z,55.90
2023-03-15T01:51:50.602Z,55.90
2023-03-15T01:52:53.451Z,55.90
2023-03-15T01:54:01.793Z,55.90
2023-03-15T01:55:11.261Z,55.80
2023-03-15T01:56:15.314Z,55.70
2023-03-15T01:57:24.702Z,55.80
2023-03-15T01:58:28.596Z,55.70
2023-03-15T01:59:36.717Z,55.80
2023-03-15T02:00:39.183Z,55.90
2023-03-15T02:01:45.697Z,56.00
2023-03-15T02:02:54.805Z,56.10
2023-03-15T02:04:05.011Z,56.10
2023-03-15T02:05:12.106Z,56.20
2023-03-15T02:06:19.955Z,56.40
2023-03-15T02:07:27.061Z,56.20
2023-03-15T02:08:34.769Z,56.40
2023-03-15T02:09:45.788Z,56.40
2023-03-15T02:10:53.431Z,56.40
2023-03-15T02:11:58.578Z,56.30
2023-03-15T02:13:01.013Z,56.30
2023-03-15T02:14:07.249Z,56.20
2023-03-15T02:15:11.559Z,56.30
2023-03-15T02:16:14.760Z,56.30
2023-03-15T02:17:20.866Z,56.30
2023-03-15T02:18:25.479Z,56.40
2023-03-15T02:19:42.427Z,56.30
2023-03-15T02:20:57.292Z,56.30
2023-03-15T02:22:12.115Z,56.40
2023-03-15T02:23:18.426Z,56.40
2023-03-15T02:24:35.566Z,56.30
2023-03-15T02:25:51.580Z,56.30
2023-03-15T02:26:56.417Z,56.30
2023-03-15T02:28:02.144Z,56.20
2023-03-15T02:29:04.537Z,56.20
2023-03-15T02:30:09.692Z,56.10
2023-03-15T02:31:11.911Z,56.10
2023-03-15T02:32:15.136Z,56.10
2023-03-15T02:33:23.847Z,56.10
2023-03-15T02:34:27.533Z,55.90
2023-03-15T02:35:32.259Z,55.90
2023-03-15T02:36:37.766Z,55.90
2023-03-15T02:37:45.857Z,55.90
2023-03-15T02:38:50.450Z,56.00
2023-03-15T02:39:52.676Z,56.00
2023-03-15T02:40:55.818Z,56.00
2023-03-15T02:41:59.461Z,56.10
2023-03-15T02:43:10.365Z,56.00
2023-03-15T02:44:18.678Z,56.10
2023-03-15T02:45:22.875Z,56.10
2023-03-15T02:46:25.556Z,56.10
2023-03-15T02:47:34.297Z,56.40
2023-03-15T02:48:39.103Z,56.50
2023-03-15T02:49:46.493Z,56.50
2023-03-15T02:50:48.679Z,56.60
2023-03-15T02:51:51.814Z,56.70
2023-03-15T02:52:53.985Z,56.70
2023-03-15T02:53:57.122Z,56.80
2023-03-15T02:54:59.605Z,56.80
2023-03-15T02:56:03.532Z,57.50
2023-03-15T02:57:05.910Z,56.80
2023-03-15T02:58:10.515Z,56.90
2023-03-15T02:59:12.921Z,57.00
2023-03-15T03:00:16.583Z,57.00
2023-03-15T03:01:19.798Z,57.00
2023-03-15T03:02:24.070Z,57.00
2023-03-15T03:03:26.383Z,57.00
2023-03-15T03:04:29.899Z,57.00
2023-03-15T03:05:32.136Z,56.90
2023-03-15T03:06:35.384Z,56.60
2023-03-15T03:07:39.000Z,56.70
2023-03-15T03:08:42.253Z,56.80
2023-03-15T03:09:44.590Z,56.80
2023-03-15T03:10:47.693Z,56.80
2023-03-15T03:11:50.015Z,56.70
2023-03-15T03:12:53.710Z,56.60
2023-03-15T03:13:57.723Z,56.50
2023-03-15T03:15:02.722Z,56.60
2023-03-15T03:16:05.373Z,56.50
2023-03-15T03:17:08.644Z,56.30
2023-03-15T03:18:10.811Z,56.40
2023-03-15T03:19:13.879Z,56.40
2023-03-15T03:20:16.422Z,56.30
2023-03-15T03:21:19.768Z,55.80
2023-03-15T03:22:24.538Z,56.30
2023-03-15T03:23:28.075Z,56.30
2023-03-15T03:24:31.239Z,56.30
2023-03-15T03:25:36.882Z,56.20
2023-03-15T03:26:39.024Z,56.30
2023-03-15T03:27:44.001Z,56.40
2023-03-15T03:28:48.010Z,56.50
2023-03-15T03:29:52.827Z,57.30
2023-03-15T03:30:56.768Z,56.70
2023-03-15T03:32:00.537Z,56.80
2023-03-15T03:33:03.008Z,56.60
2023-03-15T03:34:06.149Z,56.60
2023-03-15T03:35:09.129Z,56.60
2023-03-15T03:36:13.127Z,56.90
2023-03-15T03:37:17.142Z,57.10
2023-03-15T03:38:20.313Z,57.20
2023-03-15T03:39:22.397Z,57.70
2023-03-15T03:40:25.596Z,57.70
2023-03-15T03:41:28.031Z,58.20
2023-03-15T03:42:31.256Z,58.30
2023-03-15T03:43:33.409Z,58.50
2023-03-15T03:44:36.532Z,58.80
2023-03-15T03:45:40.064Z,59.10
2023-03-15T03:46:43.169Z,59.30
2023-03-15T03:47:45.267Z,59.60
2023-03-15T03:48:48.394Z,59.70
2023-03-15T03:49:50.611Z,59.70
2023-03-15T03:50:53.782Z,60.10
2023-03-15T03:51:55.938Z,60.30
2023-03-15T03:52:59.064Z,60.20
2023-03-15T03:54:02.106Z,60.20
2023-03-15T03:55:05.532Z,60.20
2023-03-15T03:56:08.279Z,60.30
2023-03-15T03:57:12.319Z,60.30
2023-03-15T03:58:14.565Z,60.20
2023-03-15T03:59:17.728Z,60.10
2023-03-15T04:00:20.572Z,60.30
2023-03-15T04:01:25.104Z,60.20
2023-03-15T04:02:27.326Z,60.30
2023-03-15T04:03:31.097Z,60.30
2023-03-15T04:04:33.390Z,60.40
2023-03-15T04:06:05.521Z,60.50
2023-03-15T04:07:07.793Z,60.70
2023-03-15T04:08:10.934Z,60.80
2023-03-15T04:09:13.348Z,60.90
2023-03-15T04:10:16.777Z,60.90
2023-03-15T04:11:18.920Z,60.90
2023-03-15T04:12:22.086Z,60.90
2023-03-15T04:13:25.620Z,60.80
2023-03-15T04:14:28.956Z,60.90
2023-03-15T04:15:31.483Z,60.90
2023-03-15T04:16:36.100Z,60.90
2023-03-15T04:17:38.673Z,60.90
2023-03-15T04:18:41.828Z,60.90
2023-03-15T04:19:46.755Z,61.40
2023-03-15T04:20:49.082Z,60.90
2023-03-15T04:21:52.484Z,60.90
2023-03-15T04:22:55.146Z,60.90
2023-03-15T04:23:58.501Z,60.80
2023-03-15T04:25:01.903Z,60.90
2023-03-15T04:26:06.682Z,60.80
2023-03-15T04:27:09.643Z,60.80
2023-03-15T04:28:12.826Z,60.70
2023-03-15T04:29:15.536Z,60.70
2023-03-15T04:30:18.963Z,60.70
2023-03-15T04:31:21.253Z,60.70
2023-03-15T04:32:25.857Z,60.50
2023-03-15T04:33:28.929Z,60.30
2023-03-15T04:34:32.813Z,60.30
2023-03-15T04:35:36.750Z,60.80
2023-03-15T04:36:39.977Z,60.10
2023-03-15T04:37:42.468Z,60.10
2023-03-15T04:38:47.504Z,60.10
2023-03-15T04:39:49.665Z,60.00
2023-03-15T04:40:52.982Z,60.10
2023-03-15T04:41:55.144Z,60.20
2023-03-15T04:42:58.286Z,60.20
2023-03-15T04:44:00.472Z,60.50
2023-03-15T04:45:04.249Z,60.50
2023-03-15T04:46:06.652Z,60.60
2023-03-15T04:47:10.080Z,60.70
2023-03-15T04:48:13.910Z,60.60
2023-03-15T04:49:17.026Z,60.60
2023-03-15T04:50:20.864Z,60.60
2023-03-15T04:51:24.044Z,60.60
2023-03-15T04:52:26.239Z,60.60
2023-03-15T04:53:29.632Z,60.60
2023-03-15T04:54:31.879Z,60.60
2023-03-15T04:55:35.063Z,60.50
2023-03-15T04:56:37.449Z,60.50
2023-03-15T04:57:40.672Z,60.50
2023-03-15T04:58:42.920Z,60.40
2023-03-15T04:59:46.087Z,60.40
2023-03-15T05:00:48.388Z,60.30
2023-03-15T05:01:51.681Z,60.30
2023-03-15T05:02:55.166Z,60.30
2023-03-15T05:04:00.211Z,60.40
2023-03-15T05:05:02.366Z,60.50
2023-03-15T05:06:08.277Z,60.50
2023-03-15T05:07:10.796Z,60.50
2023-03-15T05:08:13.969Z,60.50
2023-03-15T05:09:19.242Z,60.80
2023-03-15T05:10:22.467Z,60.90
2023-03-15T05:11:24.816Z,61.40
2023-03-15T05:12:27.950Z,60.90
2023-03-15T05:13:30.509Z,61.00
2023-03-15T05:14:34.726Z,61.30
2023-03-15T05:15:36.910Z,61.10
2023-03-15T05:16:40.085Z,61.20
2023-03-15T05:17:42.282Z,61.20
2023-03-15T05:18:46.229Z,61.90
2023-03-15T05:19:49.884Z,61.50
2023-03-15T05:20:55.771Z,61.60
2023-03-15T05:21:57.980Z,61.70
2023-03-15T05:23:01.285Z,61.80
2023-03-15T05:24:04.343Z,61.80
2023-03-15T05:25:09.139Z,61.90
2023-03-15T05:26:11.238Z,61.80
2023-03-15T05:27:14.490Z,62.00
2023-03-15T05:28:18.208Z,62.20
2023-03-15T05:29:22.429Z,62.30
2023-03-15T05:30:25.625Z,62.40
2023-03-15T05:31:27.881Z,62.70
2023-03-15T05:32:34.849Z,62.60
2023-03-15T05:33:37.102Z,62.60
2023-03-15T05:34:40.422Z,62.60
2023-03-15T05:35:44.938Z,62.60
2023-03-15T05:36:48.115Z,62.70
2023-03-15T05:37:50.899Z,62.80
2023-03-15T05:38:54.085Z,62.90
2023-03-15T05:39:56.562Z,63.00
2023-03-15T05:41:01.828Z,63.00
2023-03-15T05:42:04.263Z,62.90
2023-03-15T05:43:07.392Z,63.10
2023-03-15T05:44:09.891Z,63.70
2023-03-15T05:45:13.329Z,63.10
2023-03-15T05:46:15.742Z,63.10
2023-03-15T05:47:19.131Z,63.20
2023-03-15T05:48:21.286Z,63.20
2023-03-15T05:49:24.378Z,63.10
2023-03-15T05:50:28.256Z,63.30
2023-03-15T05:51:32.781Z,63.40
2023-03-15T05:52:34.969Z,63.50
2023-03-15T05:53:38.128Z,63.60
2023-03-15T05:54:40.417Z,63.70
2023-03-15T05:55:43.596Z,63.70
2023-03-15T05:56:45.834Z,63.70
2023-03-15T05:57:48.918Z,63.70
2023-03-15T05:58:51.047Z,63.80
2023-03-15T05:59:55.103Z,63.90
2023-03-15T06:00:57.317Z,64.00
2023-03-15T06:02:00.724Z,64.10
2023-03-15T06:03:02.984Z,64.20
2023-03-15T06:04:06.772Z,64.30
2023-03-15T06:05:09.775Z,64.30
2023-03-15T06:06:12.929Z,64.10
2023-03-15T06:07:16.522Z,64.00
2023-03-15T06:08:19.695Z,64.00
2023-03-15T06:09:21.900Z,64.00
2023-03-15T06:10:25.024Z,63.90
2023-03-15T06:11:27.157Z,63.80
2023-03-15T06:12:30.429Z,63.80
2023-03-15T06:13:33.264Z,63.70
2023-03-15T06:14:36.408Z,63.70
2023-03-15T06:15:39.550Z,63.60
2023-03-15T06:16:41.781Z,63.50
2023-03-15T06:17:44.890Z,63.50
2023-03-15T06:18:47.088Z,63.40
2023-03-15T06:19:50.441Z,63.40
2023-03-15T06:20:53.592Z,63.30
2023-03-15T06:21:55.777Z,63.30
2023-03-15T06:23:00.410Z,63.30
2023-03-15T06:24:02.584Z,63.40
2023-03-15T06:25:06.327Z,63.30
2023-03-15T06:26:10.183Z,63.30
2023-03-15T06:27:12.325Z,63.30
2023-03-15T06:28:15.587Z,63.90
2023-03-15T06:29:17.816Z,63.30
2023-03-15T06:30:21.271Z,63.30
2023-03-15T06:31:23.406Z,63.20
2023-03-15T06:32:26.750Z,63.30
2023-03-15T06:33:28.852Z,63.20
2023-03-15T06:34:32.023Z,63.20
2023-03-15T06:35:34.414Z,63.20
2023-03-15T06:36:37.990Z,63.20
2023-03-15T06:37:41.824Z,63.30
2023-03-15T06:38:46.446Z,63.30
2023-03-15T06:39:48.823Z,63.30
2023-03-15T06:40:52.015Z,63.30
2023-03-15T06:41:54.213Z,63.70
2023-03-15T06:42:57.342Z,63.20
2023-03-15T06:43:59.528Z,63.10
2023-03-15T06:45:03.591Z,63.00
2023-03-15T06:46:05.776Z,63.10
2023-03-15T06:47:09.525Z,63.00
2023-03-15T06:48:13.508Z,63.20
2023-03-15T06:49:15.682Z,63.20
2023-03-15T06:50:19.207Z,63.20
2023-03-15T06:51:21.636Z,63.20
2023-03-15T06:52:24.814Z,63.20
2023-03-15T06:53:27.001Z,63.10
2023-03-15T06:54:39.677Z,63.00
2023-03-15T06:55:41.995Z,63.00
2023-03-15T06:56:45.513Z,63.00
2023-03-15T06:57:47.622Z,63.00
2023-03-15T06:58:50.723Z,63.00
2023-03-15T06:59:54.136Z,63.00
2023-03-15T07:00:57.876Z,63.00
2023-03-15T07:02:00.100Z,63.60
2023-03-15T07:03:03.636Z,63.00
2023-03-15T07:04:08.292Z,63.00
2023-03-15T07:05:12.102Z,63.00
2023-03-15T07:06:14.315Z,63.10
2023-03-15T07:07:17.574Z,63.00
2023-03-15T07:08:19.872Z,63.00
2023-03-15T07:09:23.026Z,63.00
2023-03-15T07:10:27.590Z,63.10
2023-03-15T07:11:29.782Z,63.20
2023-03-15T07:12:33.103Z,63.30
2023-03-15T07:13:35.310Z,63.30
2023-03-15T07:14:38.649Z,63.40
2023-03-15T07:15:42.231Z,63.30
2023-03-15T07:16:44.760Z,63.20
2023-03-15T07:17:47.934Z,63.20
2023-03-15T07:18:50.447Z,63.10
2023-03-15T07:19:56.696Z,63.00
2023-03-15T07:21:01.344Z,62.90
2023-03-15T07:22:04.809Z,62.70
2023-03-15T07:23:07.984Z,62.70
2023-03-15T07:24:11.461Z,62.80
2023-03-15T07:25:13.679Z,62.80
2023-03-15T07:26:18.232Z,62.80
2023-03-15T07:27:20.604Z,62.80
2023-03-15T07:28:26.351Z,62.80
2023-03-15T07:29:29.498Z,62.90
2023-03-15T07:30:31.649Z,62.90
2023-03-15T07:31:35.285Z,62.80
2023-03-15T07:32:39.059Z,62.80
2023-03-15T07:33:42.374Z,62.80
2023-03-15T07:34:44.566Z,62.70
2023-03-15T07:35:47.826Z,62.60
2023-03-15T07:36:51.016Z,62.60
2023-03-15T07:37:53.675Z,62.60
2023-03-15T07:38:56.773Z,62.50
2023-03-15T07:40:00.867Z,62.50
2023-03-15T07:41:06.165Z,62.30
2023-03-15T07:42:10.328Z,62.40
2023-03-15T07:43:14.002Z,62.70
2023-03-15T07:44:17.196Z,62.90
2023-03-15T07:45:20.738Z,62.90
2023-03-15T07:46:23.915Z,62.90
2023-03-15T07:47:26.074Z,62.90
2023-03-15T07:48:30.290Z,62.90
2023-03-15T07:49:34.746Z,62.90
2023-03-15T07:50:38.165Z,62.80
2023-03-15T07:51:40.291Z,62.70
2023-03-15T07:52:43.461Z,62.70
2023-03-15T07:53:45.636Z,62.60
2023-03-15T07:54:48.865Z,62.70
2023-03-15T07:55:51.991Z,62.70
2023-03-15T07:56:54.569Z,62.70
2023-03-15T07:57:59.087Z,62.70
2023-03-15T07:59:02.232Z,62.50
2023-03-15T08:00:06.241Z,62.50
2023-03-15T08:01:10.046Z,62.50
2023-03-15T08:02:15.592Z,62.50
2023-03-15T08:03:19.230Z,62.60
2023-03-15T08:04:22.976Z,62.70
2023-03-15T08:05:28.833Z,62.80
2023-03-15T08:06:33.001Z,62.80
2023-03-15T08:07:36.585Z,62.90
2023-03-15T08:08:40.504Z,62.90
2023-03-15T08:09:42.652Z,62.80
2023-03-15T08:10:46.827Z,62.80
2023-03-15T08:11:49.332Z,62.90
2023-03-15T08:12:52.585Z,62.80
2023-03-15T08:13:56.080Z,63.30
2023-03-15T08:14:59.184Z,62.70
2023-03-15T08:16:02.360Z,62.70
2023-03-15T08:17:04.729Z,62.60
2023-03-15T08:18:07.944Z,62.40
2023-03-15T08:19:10.393Z,62.10
2023-03-15T08:20:14.992Z,62.20
2023-03-15T08:21:17.347Z,62.20
2023-03-15T08:22:20.534Z,62.20
2023-03-15T08:23:24.040Z,62.10
2023-03-15T08:24:27.145Z,62.00
2023-03-15T08:25:30.864Z,62.00
2023-03-15T08:26:33.074Z,62.00
2023-03-15T08:27:36.310Z,61.80
2023-03-15T08:28:39.490Z,61.70
2023-03-15T08:29:43.120Z,61.90
2023-03-15T08:30:46.406Z,61.60
2023-03-15T08:31:49.639Z,61.50
2023-03-15T08:32:52.693Z,61.50
2023-03-15T08:33:55.854Z,61.60
2023-03-15T08:34:58.165Z,61.70
2023-03-15T08:36:01.409Z,61.70
2023-03-15T08:37:04.038Z,61.60
2023-03-15T08:38:07.225Z,61.70
2023-03-15T08:39:09.369Z,61.80
2023-03-15T08:40:13.658Z,61.90
2023-03-15T08:41:15.829Z,62.20
2023-03-15T08:42:18.984Z,62.50
2023-03-15T08:43:22.534Z,62.50
2023-03-15T08:44:25.743Z,62.40
2023-03-15T08:45:29.356Z,61.70
2023-03-15T08:46:33.329Z,61.70
2023-03-15T08:47:36.296Z,61.50
2023-03-15T08:48:39.426Z,61.30
2023-03-15T08:49:41.617Z,61.10
2023-03-15T08:50:45.356Z,60.90
2023-03-15T08:51:48.542Z,60.90
2023-03-15T08:52:51.822Z,60.60
2023-03-15T08:53:55.289Z,60.70
2023-03-15T08:54:57.547Z,60.70
2023-03-15T08:56:01.133Z,61.10
2023-03-15T08:57:04.030Z,61.20
2023-03-15T08:58:07.230Z,61.40
2023-03-15T08:59:10.275Z,61.40
2023-03-15T09:00:20.067Z,61.40
2023-03-15T09:01:23.881Z,61.40
2023-03-15T09:02:27.216Z,61.30
2023-03-15T09:03:29.521Z,61.00
2023-03-15T09:04:34.975Z,61.00
2023-03-15T09:05:38.248Z,60.80
2023-03-15T09:06:40.762Z,61.00
2023-03-15T09:07:44.030Z,61.10
2023-03-15T09:08:47.181Z,61.10
2023-03-15T09:09:54.375Z,60.90
2023-03-15T09:10:58.757Z,60.60
2023-03-15T09:12:01.827Z,59.50
2023-03-15T09:13:05.045Z,59.60
2023-03-15T09:14:08.221Z,59.70
2023-03-15T09:15:12.050Z,59.80
2023-03-15T09:16:15.416Z,59.90
2023-03-15T09:17:19.013Z,60.00
2023-03-15T09:18:23.219Z,60.00
2023-03-15T09:19:25.480Z,59.90
2023-03-15T09:20:29.672Z,59.90
2023-03-15T09:21:32.882Z,59.90
2023-03-15T09:22:39.667Z,59.70
2023-03-15T09:23:43.038Z,59.30
2023-03-15T09:24:45.145Z,58.30
2023-03-15T09:25:48.342Z,57.90
2023-03-15T09:26:51.532Z,57.20
2023-03-15T09:27:54.106Z,56.90
2023-03-15T09:28:57.262Z,56.80
2023-03-15T09:29:59.542Z,56.70
2023-03-15T09:31:06.431Z,56.60
2023-03-15T09:32:09.030Z,56.50
2023-03-15T09:33:14.672Z,56.50
2023-03-15T09:34:17.186Z,56.60
2023-03-15T09:35:22.270Z,56.00
2023-03-15T09:36:24.602Z,55.70
2023-03-15T09:37:28.744Z,55.30
2023-03-15T09:38:31.937Z,54.40
2023-03-15T09:39:34.212Z,53.20
2023-03-15T09:40:42.516Z,53.00
2023-03-15T09:41:47.650Z,52.90
2023-03-15T09:43:10.283Z,52.40
2023-03-15T09:44:30.208Z,52.40
2023-03-15T09:45:50.574Z,51.80
2023-03-15T09:47:05.544Z,51.80
2023-03-15T09:48:15.870Z,51.30
2023-03-15T09:49:29.981Z,48.40
2023-03-15T09:50:37.959Z,48.30
2023-03-15T09:51:48.124Z,49.40
2023-03-15T09:52:59.304Z,50.20
2023-03-15T09:54:06.669Z,49.90
2023-03-15T09:55:18.295Z,50.10
2023-03-15T09:56:26.095Z,49.30
2023-03-15T09:57:41.889Z,47.60
2023-03-15T09:58:45.609Z,46.40
2023-03-15T09:59:53.586Z,45.20
2023-03-15T10:01:02.006Z,44.80
2023-03-15T10:02:20.689Z,45.40
2023-03-15T10:03:35.955Z,45.90
2023-03-15T10:04:40.608Z,46.00
2023-03-15T10:05:48.912Z,46.50
2023-03-15T10:06:56.960Z,46.90
2023-03-15T10:07:59.113Z,45.30
2023-03-15T10:09:09.400Z,45.50
2023-03-15T10:10:18.284Z,46.10
2023-03-15T10:11:29.424Z,46.60
2023-03-15T10:12:41.289Z,45.20
2023-03-15T10:13:56.788Z,45.70
2023-03-15T10:15:30.448Z,45.30
2023-03-15T10:16:42.152Z,44.90
2023-03-15T10:17:58.903Z,44.20
2023-03-15T10:19:14.847Z,44.70
2023-03-15T10:20:22.549Z,44.80
2023-03-15T10:21:39.738Z,44.30
2023-03-15T10:22:53.268Z,44.40
2023-03-15T10:23:55.504Z,44.00
2023-03-15T10:25:05.237Z,44.50
2023-03-15T10:26:15.471Z,44.40
2023-03-15T10:27:23.225Z,44.00
2023-03-15T10:28:30.628Z,44.70
2023-03-15T10:29:37.643Z,44.60
2023-03-15T10:30:47.108Z,43.90
2023-03-15T10:31:52.722Z,42.80
2023-03-15T10:33:02.810Z,42.00
2023-03-15T10:34:06.389Z,43.40
2023-03-15T10:35:16.468Z,43.00
2023-03-15T10:36:22.153Z,42.90
2023-03-15T10:37:26.603Z,43.40
2023-03-15T10:38:29.131Z,44.50
2023-03-15T10:39:32.288Z,43.10
2023-03-15T10:40:43.475Z,42.90
2023-03-15T10:41:48.718Z,42.50
2023-03-15T10:42:51.903Z,42.60
2023-03-15T10:44:00.541Z,43.30
2023-03-15T10:45:19.651Z,42.80
2023-03-15T10:46:24.717Z,43.00
2023-03-15T10:47:28.912Z,41.60
2023-03-15T10:48:33.434Z,41.70
2023-03-15T10:49:41.093Z,42.90
2023-03-15T10:50:44.229Z,43.30
2023-03-15T10:51:48.458Z,42.70
2023-03-15T10:52:51.761Z,42.00
2023-03-15T10:53:57.121Z,41.20
2023-03-15T10:55:04.672Z,40.90
2023-03-15T10:56:21.015Z,41.10
2023-03-15T10:57:32.610Z,41.10
2023-03-15T10:58:50.828Z,41.00
2023-03-15T11:00:17.319Z,39.90
2023-03-15T11:01:25.797Z,40.60
2023-03-15T11:02:29.017Z,40.90
2023-03-15T11:03:32.216Z,41.30
2023-03-15T11:04:41.879Z,41.40
2023-03-15T11:05:47.549Z,41.40
2023-03-15T11:07:00.699Z,38.90
2023-03-15T11:08:02.856Z,39.90
2023-03-15T11:09:11.557Z,40.80
2023-03-15T11:10:23.931Z,41.80
2023-03-15T11:11:27.299Z,42.20
2023-03-15T11:12:33.347Z,42.90
2023-03-15T11:13:37.249Z,44.00
2023-03-15T11:14:43.187Z,43.30
2023-03-15T11:15:54.553Z,43.10
2023-03-15T11:17:00.892Z,42.90
2023-03-15T11:18:04.112Z,43.40
2023-03-15T11:19:16.346Z,42.60
2023-03-15T11:20:31.513Z,42.20
2023-03-15T11:21:36.843Z,41.40
2023-03-15T11:22:40.064Z,42.70
2023-03-15T11:23:46.867Z,41.70
2023-03-15T11:24:50.915Z,41.70
2023-03-15T11:25:54.694Z,42.00
2023-03-15T11:27:02.558Z,43.50
2023-03-15T11:28:07.485Z,42.30
2023-03-15T11:29:22.229Z,41.80
2023-03-15T11:30:31.371Z,41.20
2023-03-15T11:31:36.765Z,41.30
2023-03-15T11:32:42.431Z,40.50
2023-03-15T11:33:53.347Z,39.80
2023-03-15T11:35:02.634Z,40.90
2023-03-15T11:36:13.610Z,40.60
2023-03-15T11:37:23.029Z,42.00
2023-03-15T11:38:33.389Z,42.00
2023-03-15T11:39:45.305Z,40.90
2023-03-15T11:40:56.858Z,42.30
2023-03-15T11:42:07.764Z,42.80
2023-03-15T11:43:20.266Z,42.60
2023-03-15T11:44:31.430Z,41.00
2023-03-15T11:45:41.497Z,41.10
2023-03-15T11:46:50.940Z,41.20
2023-03-15T11:47:59.002Z,41.80
2023-03-15T11:49:10.908Z,42.00
2023-03-15T11:50:17.253Z,42.50
2023-03-15T11:51:20.841Z,41.50
2023-03-15T11:52:27.848Z,43.00
2023-03-15T11:53:38.063Z,43.30
2023-03-15T11:54:41.304Z,44.00
2023-03-15T11:55:49.909Z,42.40
2023-03-15T11:56:55.483Z,42.30
2023-03-15T11:57:58.904Z,39.60
2023-03-15T11:59:08.635Z,41.40
2023-03-15T12:00:26.855Z,41.20
2023-03-15T12:01:30.104Z,41.10
2023-03-15T12:02:50.224Z,40.60
2023-03-15T12:04:31.861Z,38.90
2023-03-15T12:05:47.940Z,39.60
2023-03-15T12:06:54.297Z,40.10
2023-03-15T12:08:16.731Z,39.80
2023-03-15T12:09:56.470Z,38.90
2023-03-15T12:10:59.658Z,39.70
2023-03-15T12:12:05.656Z,38.80
2023-03-15T12:13:19.227Z,39.20
2023-03-15T12:14:31.749Z,40.00
2023-03-15T12:15:47.538Z,41.40
2023-03-15T12:16:50.892Z,43.00
2023-03-15T12:17:56.453Z,43.80
2023-03-15T12:19:02.164Z,45.50
2023-03-15T12:20:18.194Z,46.60
2023-03-15T12:21:24.913Z,46.90
2023-03-15T12:22:33.925Z,47.30
2023-03-15T12:23:42.595Z,48.40
2023-03-15T12:24:49.021Z,48.60
2023-03-15T12:25:55.774Z,47.30
2023-03-15T12:27:05.720Z,47.50
2023-03-15T12:28:18.816Z,47.40
2023-03-15T12:29:25.881Z,47.00
2023-03-15T12:30:35.104Z,45.70
2023-03-15T12:31:50.591Z,43.80
2023-03-15T12:32:57.703Z,44.40
2023-03-15T12:34:03.812Z,45.00
2023-03-15T12:35:20.035Z,45.20
2023-03-15T12:36:36.523Z,44.70
2023-03-15T12:37:46.497Z,43.00
2023-03-15T12:39:01.294Z,42.80
2023-03-15T12:40:39.136Z,43.20
2023-03-15T12:41:46.644Z,43.70
2023-03-15T12:43:01.985Z,43.10
2023-03-15T12:44:27.097Z,43.70
2023-03-15T12:45:37.686Z,44.00
2023-03-15T12:46:59.308Z,44.00
2023-03-15T12:48:32.842Z,42.90
2023-03-15T12:49:42.796Z,41.60
2023-03-15T12:50:53.323Z,40.70
2023-03-15T12:51:59.505Z,40.80
2023-03-15T12:53:06.030Z,41.20
2023-03-15T12:54:16.987Z,41.00
2023-03-15T12:55:19.781Z,40.40
2023-03-15T12:56:47.599Z,39.80
2023-03-15T12:57:54.556Z,40.20
2023-03-15T12:59:10.136Z,40.20
2023-03-15T13:00:18.668Z,39.50
2023-03-15T13:01:25.773Z,40.20
2023-03-15T13:02:43.263Z,39.70
2023-03-15T13:03:46.353Z,40.20
2023-03-15T13:04:50.143Z,39.80
2023-03-15T13:06:04.698Z,39.20
2023-03-15T13:07:30.551Z,40.00
2023-03-15T13:08:49.034Z,40.60
2023-03-15T13:10:08.959Z,40.10
2023-03-15T13:11:22.072Z,40.20
2023-03-15T13:12:33.783Z,41.60
2023-03-15T13:14:01.473Z,40.20
2023-03-15T13:15:14.792Z,40.90
2023-03-15T13:16:28.521Z,41.50
2023-03-15T13:17:41.993Z,40.00
2023-03-15T13:18:55.956Z,40.20
2023-03-15T13:20:39.530Z,40.50
2023-03-15T13:22:06.023Z,38.50
2023-03-15T13:23:26.109Z,38.20
2023-03-15T13:24:44.332Z,38.40
2023-03-15T13:26:05.165Z,38.70
2023-03-15T13:27:23.274Z,38.10
2023-03-15T13:28:37.250Z,36.60
2023-03-15T13:29:41.876Z,36.70
2023-03-15T13:30:48.752Z,37.00
2023-03-15T13:32:02.910Z,36.20
2023-03-15T13:33:09.846Z,34.80
2023-03-15T13:34:17.148Z,35.30
2023-03-15T13:35:19.556Z,35.00
2023-03-15T13:36:23.589Z,34.20
2023-03-15T13:37:29.238Z,35.00
2023-03-15T13:38:34.025Z,35.30
2023-03-15T13:39:37.174Z,33.50
2023-03-15T13:40:46.718Z,33.30
2023-03-15T13:41:50.218Z,33.30
2023-03-15T13:42:52.382Z,32.90
2023-03-15T13:43:58.272Z,32.60
2023-03-15T13:45:17.402Z,33.70
2023-03-15T13:46:23.093Z,34.30
2023-03-15T13:47:27.984Z,37.70
2023-03-15T13:48:32.271Z,39.60
2023-03-15T13:49:36.028Z,40.70
2023-03-15T13:50:39.215Z,42.30
2023-03-15T13:51:43.350Z,43.40
2023-03-15T13:52:46.970Z,43.80
2023-03-15T13:53:53.794Z,44.20
2023-03-15T13:54:58.203Z,44.70
2023-03-15T13:56:01.575Z,45.60
2023-03-15T13:57:10.832Z,47.20
2023-03-15T13:58:14.141Z,49.40
2023-03-15T13:59:18.651Z,51.70
2023-03-15T14:00:23.713Z,51.70
2023-03-15T14:01:28.249Z,51.70
2023-03-15T14:02:47.903Z,50.60
2023-03-15T14:03:58.942Z,50.80
2023-03-15T14:05:06.365Z,51.60
2023-03-15T14:06:14.156Z,51.60